Time;durP1;ratioP1;P1;durP2;ratioP2;P2;SDS_P1;SDS_P2;PMS_P1;PMS_P2;Temp;Humidity;BMP_temperature;BMP_pressure;BME280_temperature;BME280_humidity;BME280_pressure;Samples;Min_cycle;Max_cycle;Signal;HPM_P1;HPM_P2
2021/03/17 00:01:08;;;;;;;1.10;0.52;;;;;;;17.63;54.49;102698.34;6245515;23;20024;-79
2021/03/17 00:03:36;;;;;;;1.50;0.82;;;;;;;17.64;54.04;102698.38;6269929;22;20018;-80
2021/03/17 00:06:02;;;;;;;1.70;0.60;;;;;;;17.61;54.19;102700.03;6219186;23;20038;-78
2021/03/17 00:08:28;;;;;;;0.93;0.55;;;;;;;17.64;54.02;102705.31;6265973;23;20000;-79
2021/03/17 00:10:57;;;;;;;0.93;0.60;;;;;;;17.63;54.07;102719.19;6238161;23;20012;-79
2021/03/17 00:13:32;;;;;;;1.05;0.52;;;;;;;17.64;54.27;102723.56;6238413;22;20069;-78
2021/03/17 00:16:01;;;;;;;0.60;0.40;;;;;;;17.61;54.12;102723.47;6285942;22;20019;-78
2021/03/17 00:18:27;;;;;;;0.70;0.47;;;;;;;17.62;54.06;102725.25;6265128;23;20004;-79
2021/03/17 00:20:53;;;;;;;1.05;0.60;;;;;;;17.61;54.05;102718.25;6266802;23;20000;-79
2021/03/17 00:23:19;;;;;;;0.60;0.40;;;;;;;17.62;54.31;102720.03;6268931;22;20019;-78
2021/03/17 00:25:45;;;;;;;1.60;0.70;;;;;;;17.62;54.28;102720.03;6268188;23;20016;-79
2021/03/17 00:28:12;;;;;;;0.98;0.50;;;;;;;17.61;53.99;102715.66;6265271;22;20007;-79
2021/03/17 00:31:16;;;;;;;0.90;0.50;;;;;;;17.61;54.15;102716.53;6265963;22;20000;-79
2021/03/17 00:33:45;;;;;;;0.95;0.60;;;;;;;17.58;54.12;102711.28;6224114;23;20058;-78
2021/03/17 00:36:10;;;;;;;0.63;0.50;;;;;;;17.59;54.07;102719.97;6265677;23;20000;-78
2021/03/17 00:38:35;;;;;;;1.67;0.50;;;;;;;17.59;54.14;102719.97;6238516;23;20043;-79
2021/03/17 00:44:24;;;;;;;0.75;0.40;;;;;;;17.60;54.11;102733.00;6267005;23;20061;-79
2021/03/17 00:46:56;;;;;;;0.52;0.40;;;;;;;17.59;53.96;102732.97;6239606;23;20008;-78
2021/03/17 00:49:22;;;;;;;0.85;0.50;;;;;;;17.57;54.13;102730.38;6264850;22;20003;-78
2021/03/17 00:51:48;;;;;;;1.35;0.40;;;;;;;17.58;54.31;102728.63;6263840;23;20004;-78
2021/03/17 00:54:13;;;;;;;0.85;0.45;;;;;;;17.58;54.08;102728.63;6238658;23;20008;-78
2021/03/17 00:56:40;;;;;;;0.70;0.40;;;;;;;17.55;54.19;102713.84;6240293;23;20557;-79
2021/03/17 00:59:08;;;;;;;0.68;0.50;;;;;;;17.58;54.25;102720.81;6267810;22;20015;-79
2021/03/17 01:01:41;;;;;;;0.88;0.50;;;;;;;17.57;53.97;102722.56;6268448;23;20019;-79
2021/03/17 01:04:07;;;;;;;0.90;0.50;;;;;;;17.56;54.06;102725.97;6271641;22;20012;-79
2021/03/17 01:06:34;;;;;;;0.75;0.43;;;;;;;17.54;54.02;102719.88;6271590;23;20075;-78
2021/03/17 01:09:06;;;;;;;0.65;0.32;;;;;;;17.57;54.01;102734.66;6272210;22;20019;-82
2021/03/17 01:11:52;;;;;;;1.50;0.40;;;;;;;17.56;53.92;102733.78;6297451;22;20009;-79
2021/03/17 01:14:18;;;;;;;0.70;0.50;;;;;;;17.57;53.99;102735.56;6268104;22;20016;-78
2021/03/17 01:16:43;;;;;;;1.65;0.75;;;;;;;17.54;53.92;102740.69;6302521;22;20060;-77
2021/03/17 01:19:11;;;;;;;0.55;0.40;;;;;;;17.54;53.97;102740.69;6244921;22;20085;-78
2021/03/17 01:21:42;;;;;;;1.30;0.55;;;;;;;17.54;54.02;102742.44;6247727;22;20034;-78
2021/03/17 01:24:10;;;;;;;1.08;0.60;;;;;;;17.53;53.87;102744.16;6296528;22;20010;-78
2021/03/17 01:26:35;;;;;;;1.48;0.50;;;;;;;17.56;54.15;102751.16;6245370;22;20039;-78
2021/03/17 01:29:02;;;;;;;0.40;0.30;;;;;;;17.54;53.98;102747.63;6268373;22;20008;-78
2021/03/17 01:31:29;;;;;;;0.55;0.30;;;;;;;17.53;54.05;102744.16;6263145;22;20011;-78
2021/03/17 01:33:56;;;;;;;0.52;0.50;;;;;;;17.55;54.15;102744.16;6268932;22;20014;-78
2021/03/17 01:36:21;;;;;;;0.90;0.50;;;;;;;17.52;53.92;102744.13;6298044;22;20033;-78
2021/03/17 01:38:47;;;;;;;0.80;0.50;;;;;;;17.53;54.06;102741.56;6258551;22;20025;-78
2021/03/17 01:41:18;;;;;;;1.25;0.30;;;;;;;17.54;53.79;102734.63;6236344;23;20094;-78
2021/03/17 01:43:44;;;;;;;1.13;0.40;;;;;;;17.53;54.08;102731.13;6235368;23;20007;-78
2021/03/17 01:46:09;;;;;;;0.88;0.45;;;;;;;17.51;53.84;102725.03;6234566;23;20447;-78
2021/03/17 01:48:36;;;;;;;0.55;0.40;;;;;;;17.53;54.09;102718.13;6236004;23;19996;-78
2021/03/17 01:51:03;;;;;;;0.60;0.40;;;;;;;17.53;54.04;102717.22;6236980;23;20008;-78
2021/03/17 01:53:36;;;;;;;0.40;0.40;;;;;;;17.52;53.95;102718.09;6238271;23;20016;-77
2021/03/17 01:56:04;;;;;;;1.02;0.50;;;;;;;17.51;53.79;102709.41;6242469;23;20031;-78
2021/03/17 01:58:32;;;;;;;0.40;0.40;;;;;;;17.51;54.08;102711.09;6211765;23;20012;-78
2021/03/17 02:00:58;;;;;;;0.57;0.30;;;;;;;17.52;54.03;102708.53;6240253;23;20019;-78
2021/03/17 02:03:34;;;;;;;0.45;0.40;;;;;;;17.52;53.81;102703.34;6236586;23;20008;-78
2021/03/17 02:06:01;;;;;;;0.80;0.40;;;;;;;17.49;53.80;102698.09;6239934;23;20003;-78
2021/03/17 02:08:36;;;;;;;0.85;0.50;;;;;;;17.52;53.81;102707.66;6210783;23;20007;-78
2021/03/17 02:11:03;;;;;;;0.55;0.40;;;;;;;17.51;53.98;102703.28;6230836;23;20506;-78
2021/03/17 02:13:45;;;;;;;0.75;0.38;;;;;;;17.52;53.86;102707.66;6231416;23;20004;-78
2021/03/17 02:16:28;;;;;;;1.25;0.40;;;;;;;17.51;53.86;102711.09;6236457;23;20005;-78
2021/03/17 02:19:10;;;;;;;1.75;0.30;;;;;;;17.51;53.86;102711.09;6236535;23;20008;-78
2021/03/17 02:22:13;;;;;;;0.63;0.40;;;;;;;17.51;53.97;102705.91;6236334;23;20004;-78
2021/03/17 02:25:02;;;;;;;1.13;0.45;;;;;;;17.51;53.92;102703.28;6238744;23;20005;-78
2021/03/17 02:28:10;;;;;;;0.35;0.35;;;;;;;17.48;54.02;102701.50;6236850;23;20420;-78
2021/03/17 02:31:07;;;;;;;0.70;0.40;;;;;;;17.49;53.90;102700.69;6236157;23;20012;-78
2021/03/17 02:33:47;;;;;;;0.30;0.30;;;;;;;17.48;53.90;102704.13;6236277;23;20000;-78
2021/03/17 02:36:53;;;;;;;1.92;0.40;;;;;;;17.48;53.84;102697.22;6236363;23;20019;-78
2021/03/17 02:39:34;;;;;;;0.40;0.30;;;;;;;17.46;53.83;102683.28;6163449;23;20021;-78
2021/03/17 02:42:12;;;;;;;0.30;0.30;;;;;;;17.48;53.78;102688.50;6258082;23;20016;-77
2021/03/17 02:44:52;;;;;;;0.57;0.40;;;;;;;17.47;53.90;102690.22;6240429;23;20004;-78
2021/03/17 02:47:18;;;;;;;0.95;0.50;;;;;;;17.46;53.82;102691.09;6236143;23;20035;-77
2021/03/17 02:49:55;;;;;;;0.98;0.40;;;;;;;17.46;53.88;102692.78;6235033;23;20012;-78
2021/03/17 02:52:22;;;;;;;1.02;0.40;;;;;;;17.45;53.78;102691.06;6235702;23;19988;-77
2021/03/17 02:54:49;;;;;;;1.00;0.30;;;;;;;17.47;53.86;102695.44;6235090;23;20004;-77
2021/03/17 02:57:23;;;;;;;0.20;0.20;;;;;;;17.46;53.89;102703.19;6236715;23;20016;-77
2021/03/17 02:59:54;;;;;;;1.65;0.30;;;;;;;17.46;53.76;102693.69;6233931;23;20043;-78
2021/03/17 03:02:58;;;;;;;0.38;0.30;;;;;;;17.46;53.77;102696.31;6264747;23;20022;-79
2021/03/17 03:05:24;;;;;;;0.30;0.30;;;;;;;17.45;53.69;102691.06;6263413;23;20010;-78
2021/03/17 03:07:54;;;;;;;0.40;0.20;;;;;;;17.45;53.75;102691.91;6236160;23;20000;-78
2021/03/17 03:10:28;;;;;;;0.85;0.40;;;;;;;17.45;53.77;102685.84;6264170;23;20000;-78
2021/03/17 03:12:54;;;;;;;0.35;0.20;;;;;;;17.44;53.81;102689.28;6240563;23;20005;-79
2021/03/17 03:15:24;;;;;;;0.40;0.30;;;;;;;17.44;53.86;102692.78;6267933;23;20028;-77
2021/03/17 03:17:50;;;;;;;0.98;0.30;;;;;;;17.45;53.86;102694.53;6244556;23;20012;-78
2021/03/17 03:20:21;;;;;;;0.55;0.30;;;;;;;17.43;53.73;102698.81;6243948;23;20016;-77
2021/03/17 03:22:48;;;;;;;0.30;0.20;;;;;;;17.43;53.86;102688.41;6271057;23;20000;-78
2021/03/17 03:25:20;;;;;;;0.35;0.30;;;;;;;17.43;53.81;102688.41;6271759;23;20007;-78
2021/03/17 03:27:49;;;;;;;0.30;0.30;;;;;;;17.41;53.67;102684.91;6245871;23;20060;-78
2021/03/17 03:30:22;;;;;;;0.82;0.30;;;;;;;17.41;53.75;102690.09;6272161;23;20000;-78
2021/03/17 03:32:47;;;;;;;1.15;0.28;;;;;;;17.43;53.91;102684.94;6272408;23;20012;-78
2021/03/17 03:35:31;;;;;;;0.30;0.30;;;;;;;17.44;53.78;102687.59;6245221;23;20000;-78
2021/03/17 03:38:19;;;;;;;0.52;0.30;;;;;;;17.43;53.88;102685.81;6245245;22;20033;-78
2021/03/17 03:40:58;;;;;;;0.55;0.30;;;;;;;17.41;53.91;102692.69;6246783;23;20000;-77
2021/03/17 03:43:25;;;;;;;1.95;0.30;;;;;;;17.42;54.04;102694.47;6239604;23;20013;-79
2021/03/17 03:45:51;;;;;;;0.85;0.40;;;;;;;17.40;53.84;102692.69;6201820;23;20009;-77
2021/03/17 03:48:18;;;;;;;0.45;0.30;;;;;;;17.40;53.51;102688.34;6214309;23;20024;-77
2021/03/17 03:50:47;;;;;;;0.40;0.40;;;;;;;17.40;53.90;102692.69;6188431;23;20013;-77
2021/03/17 03:53:19;;;;;;;0.57;0.30;;;;;;;17.42;53.80;102701.38;6212457;23;20001;-77
2021/03/17 03:55:51;;;;;;;0.50;0.30;;;;;;;17.41;53.81;102708.31;6212415;23;20015;-79
2021/03/17 03:58:34;;;;;;;0.63;0.40;;;;;;;17.39;53.60;102698.72;6211266;23;20022;-77
2021/03/17 04:01:14;;;;;;;0.47;0.30;;;;;;;17.39;53.63;102712.63;6213362;23;20007;-78
2021/03/17 04:03:52;;;;;;;0.60;0.32;;;;;;;17.38;53.66;102721.28;6239063;23;20088;-78
2021/03/17 04:06:24;;;;;;;0.85;0.43;;;;;;;17.38;53.70;102721.28;6241094;23;19985;-78
2021/03/17 04:08:58;;;;;;;0.52;0.32;;;;;;;17.40;53.75;102722.19;6240390;23;20002;-77
2021/03/17 04:11:25;;;;;;;1.73;0.40;;;;;;;17.40;53.79;102726.53;6215045;23;20035;-78
2021/03/17 04:13:52;;;;;;;0.73;0.30;;;;;;;17.37;53.72;102726.44;6213429;23;20004;-78
2021/03/17 04:16:21;;;;;;;0.50;0.30;;;;;;;17.38;53.75;102729.09;6241819;23;20004;-78
2021/03/17 04:18:50;;;;;;;0.50;0.35;;;;;;;17.38;53.65;102726.47;6241570;23;20012;-78
2021/03/17 04:21:20;;;;;;;0.63;0.30;;;;;;;17.36;53.77;102715.16;6215903;23;20001;-78
2021/03/17 04:23:50;;;;;;;1.10;0.35;;;;;;;17.38;53.71;102731.69;6208625;23;20008;-77
2021/03/17 04:26:19;;;;;;;0.70;0.40;;;;;;;17.36;53.77;102722.97;6212554;23;20035;-78
2021/03/17 04:29:00;;;;;;;0.30;0.20;;;;;;;17.37;53.86;102723.84;6211268;23;20004;-77
2021/03/17 04:31:27;;;;;;;0.40;0.30;;;;;;;17.34;53.96;102729.88;6211966;23;20016;-78
2021/03/17 04:33:56;;;;;;;0.30;0.30;;;;;;;17.35;53.89;102723.78;6237159;23;19997;-78
2021/03/17 04:36:23;;;;;;;0.85;0.35;;;;;;;17.35;53.77;102723.78;6210474;23;20005;-78
2021/03/17 04:38:55;;;;;;;0.32;0.20;;;;;;;17.37;53.82;102735.13;6238945;23;20009;-78
2021/03/17 04:41:23;;;;;;;0.47;0.30;;;;;;;17.34;53.58;102740.28;6210771;23;20017;-78
2021/03/17 04:43:49;;;;;;;0.75;0.35;;;;;;;17.35;53.63;102738.53;6235980;23;20016;-78
2021/03/17 04:46:17;;;;;;;0.52;0.30;;;;;;;17.34;53.67;102745.47;6235738;23;20004;-78
2021/03/17 04:48:45;;;;;;;0.30;0.30;;;;;;;17.35;53.99;102749.81;6236489;23;20117;-78
2021/03/17 04:51:15;;;;;;;1.13;0.40;;;;;;;17.34;53.81;102749.81;6237672;23;20020;-78
2021/03/17 04:53:43;;;;;;;0.30;0.30;;;;;;;17.34;53.63;102742.00;6210937;23;20009;-78
2021/03/17 04:56:10;;;;;;;0.63;0.30;;;;;;;17.36;53.79;102740.31;6238501;23;20028;-78
2021/03/17 04:58:38;;;;;;;0.30;0.30;;;;;;;17.36;53.60;102748.13;6237084;23;20016;-77
2021/03/17 05:01:07;;;;;;;0.90;0.30;;;;;;;17.36;53.77;102748.13;6236749;23;20001;-77
2021/03/17 05:03:35;;;;;;;0.20;0.20;;;;;;;17.35;53.60;102752.41;6236440;23;20069;-78
2021/03/17 05:06:03;;;;;;;0.77;0.30;;;;;;;17.33;53.62;102748.03;6236799;23;20451;-77
2021/03/17 05:08:30;;;;;;;0.45;0.30;;;;;;;17.33;53.71;102753.25;6208963;23;20008;-78
2021/03/17 05:10:57;;;;;;;0.98;0.30;;;;;;;17.32;53.49;102747.16;6237035;23;20004;-78
2021/03/17 05:13:24;;;;;;;0.73;0.30;;;;;;;17.32;53.54;102752.38;6236521;23;20015;-77
2021/03/17 05:15:50;;;;;;;0.50;0.20;;;;;;;17.33;53.72;102755.84;6234850;23;20008;-77
2021/03/17 05:18:18;;;;;;;0.43;0.20;;;;;;;17.31;53.49;102748.03;6232156;23;20379;-78
2021/03/17 05:20:47;;;;;;;0.22;0.20;;;;;;;17.31;53.42;102754.94;6229886;23;20035;-77
2021/03/17 05:23:13;;;;;;;0.43;0.20;;;;;;;17.33;53.67;102753.25;6233346;23;19997;-77
2021/03/17 05:25:39;;;;;;;1.23;0.30;;;;;;;17.31;53.58;102749.72;6232424;23;20054;-78
2021/03/17 05:28:05;;;;;;;0.20;0.20;;;;;;;17.30;53.43;102740.19;6230235;23;20000;-77
2021/03/17 05:30:33;;;;;;;1.85;0.20;;;;;;;17.31;53.43;102749.72;6230627;23;20075;-78
2021/03/17 05:33:01;;;;;;;0.20;0.20;;;;;;;17.31;53.65;102757.53;6233007;23;20009;-78
2021/03/17 05:35:27;;;;;;;0.35;0.20;;;;;;;17.31;53.42;102755.84;6233292;23;20043;-78
2021/03/17 05:37:54;;;;;;;0.52;0.20;;;;;;;17.32;53.43;102757.56;6232576;23;20025;-77
2021/03/17 05:40:21;;;;;;;0.55;0.30;;;;;;;17.30;53.60;102751.47;6234319;23;20638;-78
2021/03/17 05:42:49;;;;;;;0.30;0.20;;;;;;;17.28;53.42;102746.22;6236947;23;20022;-78
2021/03/17 05:45:20;;;;;;;0.20;0.20;;;;;;;17.29;53.47;102744.50;6212027;23;20015;-79
2021/03/17 05:47:48;;;;;;;0.20;0.20;;;;;;;17.28;53.71;102756.63;6237906;23;20005;-77
2021/03/17 05:50:16;;;;;;;0.20;0.20;;;;;;;17.28;53.58;102761.81;6211785;23;20019;-78
2021/03/17 05:52:43;;;;;;;0.50;0.20;;;;;;;17.27;53.51;102757.47;6211629;23;20016;-77
2021/03/17 05:55:11;;;;;;;0.38;0.28;;;;;;;17.27;53.62;102760.06;6238421;23;20069;-77
2021/03/17 05:57:39;;;;;;;0.10;0.10;;;;;;;17.28;53.38;102780.03;6239179;23;20048;-77
2021/03/17 06:00:08;;;;;;;0.30;0.20;;;;;;;17.30;53.56;102781.81;6238689;23;20424;-78
2021/03/17 06:02:37;;;;;;;0.50;0.20;;;;;;;17.26;53.32;102781.72;6213348;23;20150;-78
2021/03/17 06:05:04;;;;;;;0.28;0.20;;;;;;;17.27;53.39;102787.81;6239519;23;20053;-79
2021/03/17 06:07:40;;;;;;;1.10;0.60;;;;;;;17.33;53.32;102787.94;6214786;23;20000;-78
2021/03/17 06:10:07;;;;;;;0.88;0.30;;;;;;;17.37;53.35;102784.56;6239855;23;19997;-78
2021/03/17 06:12:35;;;;;;;2.30;0.40;;;;;;;17.41;53.22;102783.78;6213700;23;20035;-77
2021/03/17 06:15:05;;;;;;;0.30;0.20;;;;;;;17.41;53.17;102782.91;6211189;23;19996;-77
2021/03/17 06:17:34;;;;;;;2.17;0.30;;;;;;;17.40;53.18;102783.78;6236178;23;20009;-78
2021/03/17 06:20:05;;;;;;;3.65;0.47;;;;;;;17.41;53.45;102778.59;6253455;22;20020;-77
2021/03/17 06:22:33;;;;;;;1.58;0.75;;;;;;;17.52;53.83;102767.53;6243286;23;20011;-78
2021/03/17 06:25:03;;;;;;;13.75;1.95;;;;;;;17.56;53.79;102764.16;6267730;23;20083;-78
2021/03/17 06:27:31;;;;;;;9.13;2.25;;;;;;;17.58;53.52;102784.16;6266564;23;20031;-77
2021/03/17 06:29:58;;;;;;;7.43;1.58;;;;;;;17.60;53.59;102779.00;6236568;23;20024;-78
2021/03/17 06:32:25;;;;;;;3.45;1.20;;;;;;;17.61;53.57;102773.81;6238138;23;20057;-77
2021/03/17 06:34:52;;;;;;;5.88;1.00;;;;;;;17.64;53.65;102794.72;6236837;23;20081;-78
2021/03/17 06:37:35;;;;;;;5.13;1.40;;;;;;;17.61;53.73;102796.38;6238957;23;20004;-78
2021/03/17 06:40:06;;;;;;;;;;;;;;;17.64;53.66;102801.66;6243304;23;20027;-77
2021/03/17 06:42:40;;;;;;;7.90;1.20;;;;;;;17.66;53.62;102799.97;6239925;23;19910;-77
2021/03/17 06:45:07;;;;;;;4.20;1.10;;;;;;;17.64;53.96;102799.06;6234081;23;20015;-78
2021/03/17 06:47:42;;;;;;;3.85;1.30;;;;;;;17.66;54.00;102816.47;6258818;23;20005;-77
2021/03/17 06:50:12;;;;;;;3.47;1.17;;;;;;;17.65;53.83;102813.81;6234949;23;20001;-78
2021/03/17 06:52:40;;;;;;;2.92;1.08;;;;;;;17.65;53.83;102809.47;6234946;23;20011;-78
2021/03/17 06:55:08;;;;;;;4.65;1.20;;;;;;;17.63;53.80;102805.09;6232935;23;19996;-77
2021/03/17 06:57:49;;;;;;;3.22;1.10;;;;;;;17.66;53.55;102815.59;6230486;23;20044;-77
2021/03/17 07:00:34;;;;;;;4.47;0.90;;;;;;;17.66;53.82;102820.78;6230408;23;20393;-78
2021/03/17 07:03:15;;;;;;;2.58;1.10;;;;;;;17.69;53.87;102824.31;6231390;23;20437;-77
2021/03/17 07:05:46;;;;;;;3.28;0.98;;;;;;;17.69;53.89;102828.66;6231722;23;20035;-78
2021/03/17 07:08:27;;;;;;;3.67;1.00;;;;;;;17.70;53.73;102830.41;6285260;22;20027;-77
2021/03/17 07:10:58;;;;;;;2.10;0.90;;;;;;;17.71;53.82;102826.09;6293254;22;20027;-77
2021/03/17 07:13:27;;;;;;;6.70;1.05;;;;;;;17.72;53.95;102841.75;6263599;22;20007;-77
2021/03/17 07:15:55;;;;;;;2.47;0.93;;;;;;;17.69;53.82;102849.50;6239058;22;20320;-77
2021/03/17 07:18:29;;;;;;;2.53;0.68;;;;;;;17.70;53.83;102848.63;6239891;22;20020;-78
2021/03/17 07:20:59;;;;;;;5.28;0.90;;;;;;;17.72;53.76;102857.34;6265509;22;20064;-78
2021/03/17 07:23:44;;;;;;;1.88;0.80;;;;;;;17.78;53.59;102856.63;6264072;22;20327;-77
2021/03/17 07:26:17;;;;;;;1.90;0.80;;;;;;;17.79;53.59;102854.06;6286916;22;20031;-78
2021/03/17 07:28:54;;;;;;;1.88;0.88;;;;;;;17.80;53.51;102839.31;6282933;22;20000;-78
2021/03/17 07:31:33;;;;;;;1.77;0.88;;;;;;;17.83;53.54;102844.59;6234898;23;20054;-78
2021/03/17 07:34:14;;;;;;;2.03;0.90;;;;;;;17.84;53.55;102849.84;6234192;23;20083;-78
2021/03/17 07:36:53;;;;;;;1.50;0.90;;;;;;;17.86;53.31;102844.69;6260800;23;20005;-78
2021/03/17 07:39:23;;;;;;;3.40;0.80;;;;;;;17.87;53.54;102849.03;6233759;23;20015;-79
2021/03/17 07:41:50;;;;;;;2.40;1.08;;;;;;;17.86;53.28;102852.50;6232162;23;20008;-78
2021/03/17 07:44:18;;;;;;;1.75;0.80;;;;;;;17.86;53.43;102862.91;6231313;23;20347;-78
2021/03/17 07:46:51;;;;;;;3.13;0.85;;;;;;;17.89;53.46;102862.97;6257903;23;20420;-78
2021/03/17 07:49:17;;;;;;;3.83;0.70;;;;;;;17.93;53.40;102850.91;6230750;23;20007;-78
2021/03/17 07:51:55;;;;;;;6.97;0.85;;;;;;;17.96;53.00;102858.78;6230022;23;20263;-78
2021/03/17 07:54:30;;;;;;;4.93;0.80;;;;;;;17.97;53.22;102866.63;6256907;23;20028;-78
2021/03/17 07:56:57;;;;;;;1.95;0.80;;;;;;;17.96;53.12;102874.41;6230319;23;20035;-78
2021/03/17 07:59:24;;;;;;;2.13;0.77;;;;;;;17.93;53.47;102858.72;6229079;23;20012;-78
2021/03/17 08:01:55;;;;;;;2.42;0.90;;;;;;;17.94;53.39;102869.16;6230385;23;20008;-78
2021/03/17 08:04:31;;;;;;;1.95;0.70;;;;;;;17.97;53.53;102870.97;6229613;23;20004;-78
2021/03/17 08:06:59;;;;;;;1.40;0.57;;;;;;;17.95;53.32;102873.53;6232450;23;20083;-78
2021/03/17 08:09:26;;;;;;;1.92;0.70;;;;;;;18.02;53.25;102879.75;6232931;23;20004;-77
2021/03/17 08:11:53;;;;;;;2.35;0.90;;;;;;;18.07;53.03;102879.00;6235353;23;20027;-78
2021/03/17 08:14:22;;;;;;;3.55;0.93;;;;;;;18.06;53.26;102878.97;6237419;23;20059;-77
2021/03/17 08:16:47;;;;;;;2.40;0.88;;;;;;;18.03;53.15;102877.19;6263504;23;20004;-79
2021/03/17 08:19:24;;;;;;;0.88;0.40;;;;;;;18.05;53.22;102877.19;6236410;23;20331;-78
2021/03/17 08:21:52;;;;;;;1.50;0.70;;;;;;;18.04;53.05;102881.53;6238558;23;20072;-78
2021/03/17 08:24:42;;;;;;;1.02;0.68;;;;;;;18.04;53.05;102884.13;6266082;23;20007;-78
2021/03/17 08:27:07;;;;;;;1.58;0.75;;;;;;;18.06;53.33;102879.84;6264884;23;20000;-78
2021/03/17 08:30:05;;;;;;;1.00;0.65;;;;;;;18.12;53.07;102868.69;6235933;23;20011;-78
2021/03/17 08:33:09;;;;;;;1.63;0.70;;;;;;;18.17;52.79;102876.59;6263486;23;20000;-78
2021/03/17 08:36:02;;;;;;;2.35;0.77;;;;;;;18.24;52.67;102870.63;6238897;23;20058;-78
2021/03/17 08:38:48;;;;;;;1.27;0.60;;;;;;;18.23;52.73;102872.38;6236804;23;20030;-77
2021/03/17 08:41:17;;;;;;;1.45;0.50;;;;;;;18.18;52.86;102867.91;6237660;23;20004;-79
2021/03/17 08:43:45;;;;;;;1.17;0.50;;;;;;;18.11;53.15;102874.72;6235241;23;20011;-78
2021/03/17 08:46:17;;;;;;;1.17;0.50;;;;;;;18.13;53.00;102882.56;6235302;23;20443;-78
2021/03/17 08:49:05;;;;;;;0.90;0.50;;;;;;;18.08;53.18;102875.53;6263558;23;20008;-78
2021/03/17 08:51:45;;;;;;;1.20;0.60;;;;;;;18.09;53.24;102873.81;6266068;23;20008;-78
2021/03/17 08:54:29;;;;;;;1.08;0.50;;;;;;;18.12;53.08;102873.88;6237941;23;20012;-78
2021/03/17 08:56:56;;;;;;;;;;;;;;;18.12;53.14;102872.97;6239900;23;20036;-78
2021/03/17 08:59:22;;;;;;;2.00;0.50;;;;;;;18.11;53.13;102879.06;6238087;23;19907;-78
2021/03/17 09:01:47;;;;;;;1.73;0.60;;;;;;;18.15;52.90;102873.94;6235813;23;20126;-78
2021/03/17 09:04:49;;;;;;;1.58;0.70;;;;;;;18.16;52.80;102887.84;6235398;23;20259;-78
2021/03/17 09:07:16;;;;;;;1.45;0.60;;;;;;;18.14;52.90;102892.13;6243302;23;20004;-78
2021/03/17 09:10:19;;;;;;;0.95;0.50;;;;;;;18.13;53.05;102885.19;6213036;23;20059;-78
2021/03/17 09:12:45;;;;;;;1.13;0.40;;;;;;;18.11;53.07;102892.09;6236447;23;20039;-78
2021/03/17 09:15:14;;;;;;;0.57;0.50;;;;;;;18.13;53.13;102896.47;6237435;23;20018;-77
2021/03/17 09:17:46;;;;;;;0.85;0.40;;;;;;;18.13;53.05;102891.25;6238543;23;20008;-78
2021/03/17 09:20:21;;;;;;;0.85;0.43;;;;;;;18.12;52.89;102892.13;6212185;23;20004;-78
2021/03/17 09:23:00;;;;;;;0.70;0.40;;;;;;;18.12;52.85;102893.84;6267267;23;20000;-78
2021/03/17 09:25:30;;;;;;;0.77;0.40;;;;;;;18.12;52.85;102891.22;6266665;23;20016;-78
2021/03/17 09:28:23;;;;;;;0.98;0.50;;;;;;;18.13;52.98;102890.41;6241400;22;20004;-79
2021/03/17 09:31:09;;;;;;;0.93;0.40;;;;;;;18.18;52.76;102889.66;6260020;23;20024;-77
2021/03/17 09:33:42;;;;;;;0.70;0.30;;;;;;;18.33;52.39;102906.44;6240427;23;20072;-78
2021/03/17 09:36:10;;;;;;;1.13;0.60;;;;;;;18.45;52.27;102885.84;6241230;23;20000;-78
2021/03/17 09:38:39;;;;;;;0.73;0.55;;;;;;;18.47;51.99;102881.53;6238533;23;20067;-79
2021/03/17 09:43:37;;;;;;;0.60;0.40;;;;;;;18.45;52.23;102873.66;6294217;22;20059;-78
2021/03/17 09:46:42;;;;;;;0.73;0.40;;;;;;;18.40;52.14;102871.81;6271333;22;20012;-78
2021/03/17 09:49:12;;;;;;;0.77;0.30;;;;;;;18.38;52.32;102876.13;6273114;22;20011;-78
2021/03/17 09:51:43;;;;;;;0.85;0.50;;;;;;;18.35;52.34;102870.84;6270974;22;20014;-78
2021/03/17 09:54:27;;;;;;;1.25;0.60;;;;;;;18.36;52.49;102875.25;6273663;22;20004;-79
2021/03/17 09:57:11;;;;;;;;;;;;;;;18.34;52.52;102883.03;6273906;22;19999;-77
2021/03/17 09:59:42;;;;;;;1.13;0.40;;;;;;;18.37;52.27;102869.16;6300908;22;19907;-79
2021/03/17 10:02:29;;;;;;;0.95;0.43;;;;;;;18.41;52.17;102858.81;6250252;22;20264;-79
2021/03/17 10:05:33;;;;;;;2.15;0.50;;;;;;;18.44;52.16;102864.09;6301109;22;20008;-77
2021/03/17 10:07:59;;;;;;;1.10;0.45;;;;;;;18.47;52.03;102861.53;6302205;22;20007;-80
2021/03/17 10:10:27;;;;;;;0.73;0.35;;;;;;;18.47;51.93;102863.28;6249670;22;20012;-78
2021/03/17 10:12:53;;;;;;;0.45;0.38;;;;;;;18.44;51.88;102861.50;6223457;22;20018;-79
2021/03/17 10:15:23;;;;;;;0.63;0.38;;;;;;;18.44;52.25;102869.31;6274002;22;20008;-79
2021/03/17 10:17:52;;;;;;;0.80;0.43;;;;;;;18.46;52.13;102866.72;6275693;22;20011;-78
2021/03/17 10:20:21;;;;;;;1.17;0.50;;;;;;;18.45;52.19;102870.19;6274208;22;19992;-78
2021/03/17 10:22:48;;;;;;;1.40;0.30;;;;;;;18.48;51.80;102865.03;6274384;22;20067;-79
2021/03/17 10:25:14;;;;;;;1.05;0.45;;;;;;;18.57;51.85;102866.94;6272901;22;20023;-82
2021/03/17 10:27:43;;;;;;;1.23;0.35;;;;;;;18.57;51.70;102861.72;6274885;22;20007;-79
2021/03/17 10:30:10;;;;;;;0.50;0.40;;;;;;;18.49;52.06;102861.59;6273577;22;20014;-78
2021/03/17 10:32:38;;;;;;;1.08;0.40;;;;;;;18.53;52.15;102865.09;6273825;22;20014;-78
2021/03/17 10:35:12;;;;;;;0.57;0.40;;;;;;;18.47;52.00;102864.16;6267790;22;20004;-78
2021/03/17 10:37:57;;;;;;;0.63;0.40;;;;;;;18.50;52.05;102866.81;6288120;22;20008;-78
2021/03/17 10:40:24;;;;;;;0.25;0.25;;;;;;;18.57;51.48;102859.97;6295085;22;19999;-79
2021/03/17 10:42:58;;;;;;;0.65;0.32;;;;;;;18.62;51.35;102867.91;6265732;22;20023;-79
2021/03/17 10:45:32;;;;;;;0.80;0.40;;;;;;;18.59;51.76;102862.63;6260192;22;20011;-80
2021/03/17 10:48:00;;;;;;;0.65;0.30;;;;;;;18.53;51.95;102867.72;6268597;22;20004;-78
2021/03/17 10:50:45;;;;;;;0.80;0.43;;;;;;;18.45;52.16;102863.25;6267349;22;20018;-80
2021/03/17 10:53:34;;;;;;;2.03;0.40;;;;;;;18.41;52.13;102860.56;6269113;22;20000;-78
2021/03/17 10:56:02;;;;;;;0.32;0.30;;;;;;;18.46;52.26;102861.50;6269439;22;20011;-79
2021/03/17 10:58:31;;;;;;;0.50;0.35;;;;;;;18.47;52.01;102863.28;6292467;22;20011;-78
2021/03/17 11:01:09;;;;;;;1.15;0.38;;;;;;;18.42;52.21;102863.19;6266728;22;20027;-79
2021/03/17 11:03:39;;;;;;;0.82;0.43;;;;;;;18.42;52.08;102864.91;6301777;22;20037;-79
2021/03/17 11:06:29;;;;;;;0.43;0.30;;;;;;;18.45;51.96;102865.84;6231795;22;20021;-80
2021/03/17 11:09:00;;;;;;;1.15;0.30;;;;;;;18.46;51.94;102867.59;6209869;23;20032;-78
2021/03/17 11:11:29;;;;;;;0.70;0.40;;;;;;;18.49;52.13;102869.41;6208712;23;19993;-79
2021/03/17 11:13:55;;;;;;;0.80;0.30;;;;;;;18.47;51.73;102864.16;6183381;23;20009;-80
2021/03/17 11:16:30;;;;;;;1.13;0.40;;;;;;;18.52;51.85;102860.75;6203184;23;20033;-78
2021/03/17 11:19:09;;;;;;;0.47;0.30;;;;;;;18.49;51.82;102857.25;6204772;23;20005;-86
2021/03/17 11:21:37;;;;;;;0.73;0.40;;;;;;;18.55;52.08;102861.66;6205343;23;20016;-80
2021/03/17 11:24:05;;;;;;;0.70;0.40;;;;;;;18.58;51.99;102860.88;6204720;23;20396;-79
2021/03/17 11:26:38;;;;;;;0.40;0.30;;;;;;;18.62;51.33;102855.75;6203458;23;20013;-80
2021/03/17 11:29:33;;;;;;;0.20;0.20;;;;;;;18.55;51.62;102846.03;6202574;23;19997;-80
2021/03/17 11:32:06;;;;;;;0.50;0.35;;;;;;;18.50;52.04;102853.78;6204063;23;19993;-78
2021/03/17 11:34:32;;;;;;;0.40;0.35;;;;;;;18.46;52.28;102857.16;6179660;23;20095;-78
2021/03/17 11:36:57;;;;;;;0.70;0.30;;;;;;;18.43;52.12;102854.50;6205279;23;20005;-78
2021/03/17 11:39:28;;;;;;;0.30;0.30;;;;;;;18.41;52.13;102857.94;6204339;23;20033;-79
2021/03/17 11:41:57;;;;;;;1.58;0.30;;;;;;;18.44;52.04;102850.16;6204516;23;20008;-79
2021/03/17 11:44:22;;;;;;;0.30;0.30;;;;;;;18.47;52.33;102856.34;6210332;22;20009;-79
2021/03/17 11:46:49;;;;;;;0.95;0.40;;;;;;;18.53;51.96;102844.25;6209154;23;20082;-79
2021/03/17 11:49:16;;;;;;;1.42;0.43;;;;;;;18.60;52.01;102844.41;6208341;23;20021;-78
2021/03/17 11:51:44;;;;;;;0.60;0.40;;;;;;;18.65;51.80;102853.19;6209186;23;20001;-79
2021/03/17 11:54:10;;;;;;;2.35;0.40;;;;;;;18.70;52.10;102842.81;6235137;23;20001;-79
2021/03/17 11:56:36;;;;;;;0.43;0.30;;;;;;;18.72;52.13;102841.13;6236404;23;20005;-79